WetterOnline ( https://www.wetteronline.de )

Wetter aktuell Hoyerswerda

Aktuelles Wetter: Hoyerswerda (116m)

6-stündlich | Neueste Meldungen
Ortszeit Temperatur Wetter
Sa, 24.08. 14:00 26.5° C leicht bewölkt
Sa, 24.08. 8:00 16.5° C wolkenlos
Sa, 24.08. 2:00 12.6° C wolkenlos
Fr, 23.08. 20:00 24.2° C wolkenlos
Fr, 23.08. 14:00 25.0° C wolkenlos
Fr, 23.08. 8:00 15.1° C wolkenlos
Fr, 23.08. 2:00 11.4° C leicht bewölkt
Do, 22.08. 20:00 22.0° C wolkenlos
Ortszeit Temperatur Wetter
Sa, 24.08. 15:00 27.6° C wolkig
Sa, 24.08. 14:50 27.6° C wolkig
Sa, 24.08. 14:40 26.5° C wolkig
Sa, 24.08. 14:30 27.2° C wolkig
Sa, 24.08. 14:20 27.2° C wolkig
Sa, 24.08. 14:10 27.3° C wolkig
Sa, 24.08. 14:00 26.5° C leicht bewölkt
Sa, 24.08. 13:30 26.2° C wolkig
Sa, 24.08. 13:00 25.7° C leicht bewölkt
Sa, 24.08. 12:30 25.3° C wolkig
Sa, 24.08. 12:00 25.2° C leicht bewölkt
Ortszeit Relative Feuchte Sichtweite
Sa, 24.08. 14:00 49% 27 km
Sa, 24.08. 8:00 85% 17 km
Sa, 24.08. 2:00 96% 13 km
Fr, 23.08. 20:00 46% 14 km
Fr, 23.08. 14:00 45% 40 km
Fr, 23.08. 8:00 84% 15 km
Fr, 23.08. 2:00 96% 8 km
Do, 22.08. 20:00 52% 70 km
Ortszeit Relative Feuchte Sichtweite
Sa, 24.08. 15:00 47% 35 km
Sa, 24.08. 14:50 47% -
Sa, 24.08. 14:40 50% -
Sa, 24.08. 14:30 48% 29 km
Sa, 24.08. 14:20 48% -
Sa, 24.08. 14:10 48% -
Sa, 24.08. 14:00 49% 27 km
Sa, 24.08. 13:30 53% 23 km
Sa, 24.08. 13:00 54% 30 km
Sa, 24.08. 12:30 53% 30 km
Sa, 24.08. 12:00 53% 30 km
Ortszeit Niederschlagsmenge Niederschlagsart
Sa, 24.08. 14:00 0.0 l/m2 in 6 Std. -
Sa, 24.08. 8:00 0.0 l/m2 in 12 Std. -
Sa, 24.08. 2:00 0.0 l/m2 in 6 Std. -
Fr, 23.08. 20:00 0.0 l/m2 in 12 Std. -
Fr, 23.08. 14:00 0.0 l/m2 in 6 Std. -
Fr, 23.08. 8:00 0.0 l/m2 in 12 Std. -
Fr, 23.08. 2:00 0.0 l/m2 in 6 Std. -
Do, 22.08. 20:00 0.0 l/m2 in 12 Std. -
Ortszeit Niederschlagsmenge Niederschlagsart
Sa, 24.08. 15:00 0.0 l/m2 in 1 Std. -
Sa, 24.08. 14:50 keine Meldung -
Sa, 24.08. 14:40 keine Meldung -
Sa, 24.08. 14:30 0.0 l/m2 in 1 Std. -
Sa, 24.08. 14:20 keine Meldung -
Sa, 24.08. 14:10 keine Meldung -
Sa, 24.08. 14:00 0.0 l/m2 in 1 Std. -
Sa, 24.08. 13:30 0.0 l/m2 in 1 Std. -
Sa, 24.08. 13:00 0.0 l/m2 in 1 Std. -
Sa, 24.08. 12:30 0.0 l/m2 in 1 Std. -
Sa, 24.08. 12:00 0.0 l/m2 in 1 Std. -
Ortszeit Stärke Spitze Richtung
km/h Bft. km/h Grad Sektor
Sa, 24.08. 14:00 14 3 29 100° O
Sa, 24.08. 8:00 4 1 11 80° O
Sa, 24.08. 2:00 0 0 11 - -
Fr, 23.08. 20:00 6 1 24 120° SO
Fr, 23.08. 14:00 11 2 25 80° O
Fr, 23.08. 8:00 6 1 9 130° SO
Fr, 23.08. 2:00 4 1 14 100° O
Do, 22.08. 20:00 7 2 29 110° O
Ortszeit Stärke Spitze Richtung
km/h Bft. km/h Grad Sektor
Sa, 24.08. 15:00 17 3 35 80° O
Sa, 24.08. 14:50 17 3 - 80° O
Sa, 24.08. 14:40 14 3 - 100° O
Sa, 24.08. 14:30 17 3 35 90° O
Sa, 24.08. 14:20 17 3 - 90° O
Sa, 24.08. 14:10 14 3 - 120° SO
Sa, 24.08. 14:00 14 3 29 100° O
Sa, 24.08. 13:30 17 3 30 90° O
Sa, 24.08. 13:00 14 3 29 90° O
Sa, 24.08. 12:30 14 3 29 110° O
Sa, 24.08. 12:00 15 3 28 90° O
Ortszeit Untergrenze Bedeckung Gattung
total tief tief mittel hoch
Sa, 24.08. 14:00 1350 m 6/8 1/8 - - -
Sa, 24.08. 8:00 - 0/8 0/8 - - -
Sa, 24.08. 2:00 - 0/8 0/8 - - -
Fr, 23.08. 20:00 - 0/8 0/8 - - -
Fr, 23.08. 14:00 - 0/8 0/8 - - -
Fr, 23.08. 8:00 - 0/8 0/8 - - -
Fr, 23.08. 2:00 10500 m 3/8 0/8 - - -
Do, 22.08. 20:00 - 0/8 0/8 - - -
Ortszeit Bedeckungsgrad in Achtel und Wolkenuntergrenze
Sa, 24.08. 15:00 3(9000m) 8(10500m)
Sa, 24.08. 14:50 3(9000m) 8(10500m)
Sa, 24.08. 14:40 1(1410m) 5(9000m) 8(10500m)
Sa, 24.08. 14:30 1(1380m) 8(9000m) 8(10500m)
Sa, 24.08. 14:20 1(1380m) 8(9000m) 8(10500m)
Sa, 24.08. 14:10 1(1410m) 8(10500m) 8(10500m)
Sa, 24.08. 14:00 1(1350m) 5(9000m) 6(10500m)
Sa, 24.08. 13:30 3(1320m) 6(9000m) 5(10500m)
Sa, 24.08. 13:00 2(1290m)
Sa, 24.08. 12:30 1(1260m) 7(9000m) 7(9000m)
Sa, 24.08. 12:00 7(8400m) 7(9000m)
Ortszeit Luftdruck NN (hPa) Tendenz (hPa in 3 Std.)
Sa, 24.08. 14:00 1023 - 1,0
Sa, 24.08. 8:00 1024 - 0,4
Sa, 24.08. 2:00 1025 - 0,3
Fr, 23.08. 20:00 1024 - 0,5
Fr, 23.08. 14:00 1026 - 0,9
Fr, 23.08. 8:00 1027 + 0,5
Fr, 23.08. 2:00 1027 + 0,2
Do, 22.08. 20:00 1026 - 0,2
Ortszeit Luftdruck NN (hPa) Tendenz (hPa in 3 Std.)
Sa, 24.08. 15:00 1022 - 0,9
Sa, 24.08. 14:50 1022 keine Meldung
Sa, 24.08. 14:40 1022 keine Meldung
Sa, 24.08. 14:30 1022 - 1,0
Sa, 24.08. 14:20 1022 keine Meldung
Sa, 24.08. 14:10 1022 keine Meldung
Sa, 24.08. 14:00 1023 - 1,0
Sa, 24.08. 13:30 1023 - 1,1
Sa, 24.08. 13:00 1023 - 0,8
Sa, 24.08. 12:30 1023 - 0,7
Sa, 24.08. 12:00 1023 - 0,6
Ortszeit Schneehöhe (cm)
Sa, 24.08. 14:00 -
Sa, 24.08. 8:00 -
Sa, 24.08. 2:00 -
Fr, 23.08. 20:00 -
Fr, 23.08. 14:00 -
Fr, 23.08. 8:00 -
Fr, 23.08. 2:00 -
Do, 22.08. 20:00 -
Ortszeit Schneehöhe (cm)
Sa, 24.08. 15:00 -
Sa, 24.08. 14:50 -
Sa, 24.08. 14:40 -
Sa, 24.08. 14:30 -
Sa, 24.08. 14:20 -
Sa, 24.08. 14:10 -
Sa, 24.08. 14:00 -
Sa, 24.08. 13:30 -
Sa, 24.08. 13:00 -
Sa, 24.08. 12:30 -
Sa, 24.08. 12:00 -
Link zu dieser Seite / Seite empfehlen

Das Wetter in ...